sensor_id;sensor_type;location;lat;lon;timestamp;temperature;humidity
67050;DHT22;53955;52.442;13.284;2023-02-02T00:00:19;6.50;71.50
67050;DHT22;53955;52.442;13.284;2023-02-02T00:02:46;6.70;71.80
67050;DHT22;53955;52.442;13.284;2023-02-02T00:05:12;6.70;71.30
67050;DHT22;53955;52.442;13.284;2023-02-02T00:07:40;6.60;71.90
67050;DHT22;53955;52.442;13.284;2023-02-02T00:10:08;6.80;71.70
67050;DHT22;53955;52.442;13.284;2023-02-02T00:12:34;6.70;71.30
67050;DHT22;53955;52.442;13.284;2023-02-02T00:15:01;6.70;72.00
67050;DHT22;53955;52.442;13.284;2023-02-02T00:17:28;6.80;71.50
67050;DHT22;53955;52.442;13.284;2023-02-02T00:19:54;6.90;71.50
67050;DHT22;53955;52.442;13.284;2023-02-02T00:22:21;6.90;71.90
67050;DHT22;53955;52.442;13.284;2023-02-02T00:24:49;6.90;72.00
67050;DHT22;53955;52.442;13.284;2023-02-02T00:27:15;6.80;71.30
67050;DHT22;53955;52.442;13.284;2023-02-02T00:29:42;6.90;71.00
67050;DHT22;53955;52.442;13.284;2023-02-02T00:32:09;6.70;71.00
67050;DHT22;53955;52.442;13.284;2023-02-02T00:34:35;6.80;71.20
67050;DHT22;53955;52.442;13.284;2023-02-02T00:37:02;6.90;71.40
67050;DHT22;53955;52.442;13.284;2023-02-02T00:39:28;7.00;70.90
67050;DHT22;53955;52.442;13.284;2023-02-02T00:41:56;6.90;70.70
67050;DHT22;53955;52.442;13.284;2023-02-02T00:44:23;7.00;71.30
67050;DHT22;53955;52.442;13.284;2023-02-02T00:47:07;7.00;70.60
67050;DHT22;53955;52.442;13.284;2023-02-02T00:49:33;7.00;71.00
67050;DHT22;53955;52.442;13.284;2023-02-02T00:52:00;7.00;70.80
67050;DHT22;53955;52.442;13.284;2023-02-02T00:54:27;6.90;71.00
67050;DHT22;53955;52.442;13.284;2023-02-02T00:56:55;6.90;70.80
67050;DHT22;53955;52.442;13.284;2023-02-02T00:59:21;7.00;71.20
67050;DHT22;53955;52.442;13.284;2023-02-02T01:01:48;7.10;71.00
67050;DHT22;53955;52.442;13.284;2023-02-02T01:04:15;7.20;71.90
67050;DHT22;53955;52.442;13.284;2023-02-02T01:06:41;7.20;71.60
67050;DHT22;53955;52.442;13.284;2023-02-02T01:09:08;7.00;72.80
67050;DHT22;53955;52.442;13.284;2023-02-02T01:11:34;7.10;72.70
67050;DHT22;53955;52.442;13.284;2023-02-02T01:14:02;7.10;73.10
67050;DHT22;53955;52.442;13.284;2023-02-02T01:16:29;7.20;74.10
67050;DHT22;53955;52.442;13.284;2023-02-02T01:18:55;7.10;74.60
67050;DHT22;53955;52.442;13.284;2023-02-02T01:21:22;7.10;75.70
67050;DHT22;53955;52.442;13.284;2023-02-02T01:23:49;7.10;74.70
67050;DHT22;53955;52.442;13.284;2023-02-02T01:26:16;7.00;74.40
67050;DHT22;53955;52.442;13.284;2023-02-02T01:28:43;7.10;75.30
67050;DHT22;53955;52.442;13.284;2023-02-02T01:31:12;7.00;75.90
67050;DHT22;53955;52.442;13.284;2023-02-02T01:33:39;7.10;75.70
67050;DHT22;53955;52.442;13.284;2023-02-02T01:36:08;6.90;76.50
67050;DHT22;53955;52.442;13.284;2023-02-02T01:38:35;7.00;76.50
67050;DHT22;53955;52.442;13.284;2023-02-02T01:41:03;7.00;76.00
67050;DHT22;53955;52.442;13.284;2023-02-02T01:43:51;6.90;76.40
67050;DHT22;53955;52.442;13.284;2023-02-02T01:46:22;6.90;77.20
67050;DHT22;53955;52.442;13.284;2023-02-02T01:48:53;6.90;77.60
67050;DHT22;53955;52.442;13.284;2023-02-02T01:51:22;6.90;78.20
67050;DHT22;53955;52.442;13.284;2023-02-02T01:53:53;6.80;78.80
67050;DHT22;53955;52.442;13.284;2023-02-02T01:56:25;6.80;78.80
67050;DHT22;53955;52.442;13.284;2023-02-02T01:58:52;6.80;78.80
67050;DHT22;53955;52.442;13.284;2023-02-02T02:01:20;6.80;79.40
67050;DHT22;53955;52.442;13.284;2023-02-02T02:03:47;6.80;79.60
67050;DHT22;53955;52.442;13.284;2023-02-02T02:06:16;6.90;79.90
67050;DHT22;53955;52.442;13.284;2023-02-02T02:08:48;6.70;79.50
67050;DHT22;53955;52.442;13.284;2023-02-02T02:11:16;6.60;79.70
67050;DHT22;53955;52.442;13.284;2023-02-02T02:13:43;6.80;79.90
67050;DHT22;53955;52.442;13.284;2023-02-02T02:16:35;6.70;79.70
67050;DHT22;53955;52.442;13.284;2023-02-02T02:19:22;6.70;79.90
67050;DHT22;53955;52.442;13.284;2023-02-02T02:21:56;6.60;79.70
67050;DHT22;53955;52.442;13.284;2023-02-02T02:28:25;6.70;79.50
67050;DHT22;53955;52.442;13.284;2023-02-02T02:31:14;6.70;79.70
67050;DHT22;53955;52.442;13.284;2023-02-02T02:33:49;6.70;80.00
67050;DHT22;53955;52.442;13.284;2023-02-02T02:36:26;6.80;79.00
67050;DHT22;53955;52.442;13.284;2023-02-02T02:39:00;6.70;78.90
67050;DHT22;53955;52.442;13.284;2023-02-02T02:41:32;6.90;79.30
67050;DHT22;53955;52.442;13.284;2023-02-02T02:44:03;6.80;78.30
67050;DHT22;53955;52.442;13.284;2023-02-02T02:46:30;7.00;78.60
67050;DHT22;53955;52.442;13.284;2023-02-02T02:48:58;6.90;78.00
67050;DHT22;53955;52.442;13.284;2023-02-02T02:51:46;6.90;78.00
67050;DHT22;53955;52.442;13.284;2023-02-02T02:54:16;7.00;77.90
67050;DHT22;53955;52.442;13.284;2023-02-02T02:59:50;6.90;78.50
67050;DHT22;53955;52.442;13.284;2023-02-02T03:02:32;7.00;78.60
67050;DHT22;53955;52.442;13.284;2023-02-02T03:05:15;7.10;79.00
67050;DHT22;53955;52.442;13.284;2023-02-02T03:07:47;7.00;79.10
67050;DHT22;53955;52.442;13.284;2023-02-02T03:10:18;7.00;78.90
67050;DHT22;53955;52.442;13.284;2023-02-02T03:12:47;7.00;78.30
67050;DHT22;53955;52.442;13.284;2023-02-02T03:15:15;7.10;78.50
67050;DHT22;53955;52.442;13.284;2023-02-02T03:17:42;7.00;78.50
67050;DHT22;53955;52.442;13.284;2023-02-02T03:20:12;6.90;78.20
67050;DHT22;53955;52.442;13.284;2023-02-02T03:22:38;6.90;78.30
67050;DHT22;53955;52.442;13.284;2023-02-02T03:25:06;7.00;77.90
67050;DHT22;53955;52.442;13.284;2023-02-02T03:27:36;7.10;78.00
67050;DHT22;53955;52.442;13.284;2023-02-02T03:30:03;7.00;78.30
67050;DHT22;53955;52.442;13.284;2023-02-02T03:32:30;7.00;78.30
67050;DHT22;53955;52.442;13.284;2023-02-02T03:34:57;7.00;78.60
67050;DHT22;53955;52.442;13.284;2023-02-02T03:37:25;7.10;78.20
67050;DHT22;53955;52.442;13.284;2023-02-02T03:39:52;7.10;78.00
67050;DHT22;53955;52.442;13.284;2023-02-02T03:42:18;7.00;78.20
67050;DHT22;53955;52.442;13.284;2023-02-02T03:44:45;7.00;78.30
67050;DHT22;53955;52.442;13.284;2023-02-02T03:47:11;6.90;78.00
67050;DHT22;53955;52.442;13.284;2023-02-02T03:49:38;7.00;78.00
67050;DHT22;53955;52.442;13.284;2023-02-02T03:52:04;6.80;78.40
67050;DHT22;53955;52.442;13.284;2023-02-02T03:54:32;7.10;78.10
67050;DHT22;53955;52.442;13.284;2023-02-02T03:56:59;7.00;78.20
67050;DHT22;53955;52.442;13.284;2023-02-02T03:59:26;7.00;77.90
67050;DHT22;53955;52.442;13.284;2023-02-02T04:01:52;7.10;77.70
67050;DHT22;53955;52.442;13.284;2023-02-02T04:04:19;7.30;78.00
67050;DHT22;53955;52.442;13.284;2023-02-02T04:06:45;7.20;77.80
67050;DHT22;53955;52.442;13.284;2023-02-02T04:09:12;7.10;77.60
67050;DHT22;53955;52.442;13.284;2023-02-02T04:11:40;7.20;77.20
67050;DHT22;53955;52.442;13.284;2023-02-02T04:14:08;7.20;77.40
67050;DHT22;53955;52.442;13.284;2023-02-02T04:16:34;7.20;77.10
67050;DHT22;53955;52.442;13.284;2023-02-02T04:19:02;7.20;76.40
67050;DHT22;53955;52.442;13.284;2023-02-02T04:21:29;7.30;76.70
67050;DHT22;53955;52.442;13.284;2023-02-02T04:23:55;7.20;76.60
67050;DHT22;53955;52.442;13.284;2023-02-02T04:26:22;7.20;77.80
67050;DHT22;53955;52.442;13.284;2023-02-02T04:28:51;7.30;76.50
67050;DHT22;53955;52.442;13.284;2023-02-02T04:31:18;7.40;76.10
67050;DHT22;53955;52.442;13.284;2023-02-02T04:33:44;7.30;75.90
67050;DHT22;53955;52.442;13.284;2023-02-02T04:36:11;7.10;76.30
67050;DHT22;53955;52.442;13.284;2023-02-02T04:38:37;7.20;76.20
67050;DHT22;53955;52.442;13.284;2023-02-02T04:41:06;7.30;75.60
67050;DHT22;53955;52.442;13.284;2023-02-02T04:43:33;7.20;76.00
67050;DHT22;53955;52.442;13.284;2023-02-02T04:46:01;7.30;76.10
67050;DHT22;53955;52.442;13.284;2023-02-02T04:48:27;7.30;75.70
67050;DHT22;53955;52.442;13.284;2023-02-02T04:50:58;7.20;76.00
67050;DHT22;53955;52.442;13.284;2023-02-02T04:53:25;7.30;75.80
67050;DHT22;53955;52.442;13.284;2023-02-02T04:55:51;7.30;75.50
67050;DHT22;53955;52.442;13.284;2023-02-02T04:58:18;7.30;76.20
67050;DHT22;53955;52.442;13.284;2023-02-02T05:00:44;7.20;76.50
67050;DHT22;53955;52.442;13.284;2023-02-02T05:03:12;7.30;75.90
67050;DHT22;53955;52.442;13.284;2023-02-02T05:05:39;7.10;76.40
67050;DHT22;53955;52.442;13.284;2023-02-02T05:08:06;7.20;75.80
67050;DHT22;53955;52.442;13.284;2023-02-02T05:10:34;7.20;75.90
67050;DHT22;53955;52.442;13.284;2023-02-02T05:13:00;7.20;75.80
67050;DHT22;53955;52.442;13.284;2023-02-02T05:15:27;7.10;75.40
67050;DHT22;53955;52.442;13.284;2023-02-02T05:17:53;7.30;75.40
67050;DHT22;53955;52.442;13.284;2023-02-02T05:20:21;7.20;75.40
67050;DHT22;53955;52.442;13.284;2023-02-02T05:22:48;7.30;75.50
67050;DHT22;53955;52.442;13.284;2023-02-02T05:25:15;7.30;74.80
67050;DHT22;53955;52.442;13.284;2023-02-02T05:27:42;7.20;74.60
67050;DHT22;53955;52.442;13.284;2023-02-02T05:30:10;7.40;74.80
67050;DHT22;53955;52.442;13.284;2023-02-02T05:32:37;7.20;74.60
67050;DHT22;53955;52.442;13.284;2023-02-02T05:35:04;7.40;74.40
67050;DHT22;53955;52.442;13.284;2023-02-02T05:37:32;7.30;74.30
67050;DHT22;53955;52.442;13.284;2023-02-02T05:39:59;7.20;74.80
67050;DHT22;53955;52.442;13.284;2023-02-02T05:42:25;7.20;74.40
67050;DHT22;53955;52.442;13.284;2023-02-02T05:44:52;7.30;74.80
67050;DHT22;53955;52.442;13.284;2023-02-02T05:47:19;7.30;74.70
67050;DHT22;53955;52.442;13.284;2023-02-02T05:49:46;7.30;74.40
67050;DHT22;53955;52.442;13.284;2023-02-02T05:52:15;7.30;74.50
67050;DHT22;53955;52.442;13.284;2023-02-02T05:54:44;7.40;73.80
67050;DHT22;53955;52.442;13.284;2023-02-02T05:57:11;7.40;74.70
67050;DHT22;53955;52.442;13.284;2023-02-02T05:59:37;7.40;75.20
67050;DHT22;53955;52.442;13.284;2023-02-02T06:02:04;7.30;74.90
67050;DHT22;53955;52.442;13.284;2023-02-02T06:04:30;7.40;75.20
67050;DHT22;53955;52.442;13.284;2023-02-02T06:06:57;7.50;74.60
67050;DHT22;53955;52.442;13.284;2023-02-02T06:09:24;7.30;75.50
67050;DHT22;53955;52.442;13.284;2023-02-02T06:11:52;7.30;74.80
67050;DHT22;53955;52.442;13.284;2023-02-02T06:14:18;7.40;74.80
67050;DHT22;53955;52.442;13.284;2023-02-02T06:16:45;7.40;75.10
67050;DHT22;53955;52.442;13.284;2023-02-02T06:19:11;7.40;74.70
67050;DHT22;53955;52.442;13.284;2023-02-02T06:21:38;7.40;74.60
67050;DHT22;53955;52.442;13.284;2023-02-02T06:24:05;7.20;73.60
67050;DHT22;53955;52.442;13.284;2023-02-02T06:26:32;7.20;73.50
67050;DHT22;53955;52.442;13.284;2023-02-02T06:29:00;7.40;73.60
67050;DHT22;53955;52.442;13.284;2023-02-02T06:31:27;7.50;73.00
67050;DHT22;53955;52.442;13.284;2023-02-02T06:33:54;7.40;73.00
67050;DHT22;53955;52.442;13.284;2023-02-02T06:36:22;7.40;73.20
67050;DHT22;53955;52.442;13.284;2023-02-02T06:38:49;7.40;72.30
67050;DHT22;53955;52.442;13.284;2023-02-02T06:41:16;7.50;72.90
67050;DHT22;53955;52.442;13.284;2023-02-02T06:43:44;7.30;72.10
67050;DHT22;53955;52.442;13.284;2023-02-02T06:46:12;7.30;72.00
67050;DHT22;53955;52.442;13.284;2023-02-02T06:48:39;7.30;71.70
67050;DHT22;53955;52.442;13.284;2023-02-02T06:51:06;7.10;71.40
67050;DHT22;53955;52.442;13.284;2023-02-02T06:53:33;7.30;71.60
67050;DHT22;53955;52.442;13.284;2023-02-02T06:56:01;7.30;70.80
67050;DHT22;53955;52.442;13.284;2023-02-02T06:58:29;7.30;70.80
67050;DHT22;53955;52.442;13.284;2023-02-02T07:01:00;7.30;70.00
67050;DHT22;53955;52.442;13.284;2023-02-02T07:03:30;7.30;70.10
67050;DHT22;53955;52.442;13.284;2023-02-02T07:05:57;7.20;68.90
67050;DHT22;53955;52.442;13.284;2023-02-02T07:08:23;7.30;69.30
67050;DHT22;53955;52.442;13.284;2023-02-02T07:10:50;7.40;69.50
67050;DHT22;53955;52.442;13.284;2023-02-02T07:13:17;7.50;69.50
67050;DHT22;53955;52.442;13.284;2023-02-02T07:15:43;7.40;69.90
67050;DHT22;53955;52.442;13.284;2023-02-02T07:18:10;7.50;70.50
67050;DHT22;53955;52.442;13.284;2023-02-02T07:20:38;7.50;70.10
67050;DHT22;53955;52.442;13.284;2023-02-02T07:23:04;7.60;70.10
67050;DHT22;53955;52.442;13.284;2023-02-02T07:25:31;7.60;70.10
67050;DHT22;53955;52.442;13.284;2023-02-02T07:27:57;7.60;69.60
67050;DHT22;53955;52.442;13.284;2023-02-02T07:30:24;7.60;70.40
67050;DHT22;53955;52.442;13.284;2023-02-02T07:32:54;7.60;70.20
67050;DHT22;53955;52.442;13.284;2023-02-02T07:35:20;7.80;70.40
67050;DHT22;53955;52.442;13.284;2023-02-02T07:37:51;7.70;69.40
67050;DHT22;53955;52.442;13.284;2023-02-02T07:40:18;7.80;70.60
67050;DHT22;53955;52.442;13.284;2023-02-02T07:42:45;7.70;70.20
67050;DHT22;53955;52.442;13.284;2023-02-02T07:45:12;7.90;70.20
67050;DHT22;53955;52.442;13.284;2023-02-02T07:47:38;8.10;69.90
67050;DHT22;53955;52.442;13.284;2023-02-02T07:50:06;8.30;69.30
67050;DHT22;53955;52.442;13.284;2023-02-02T07:52:32;8.30;69.70
67050;DHT22;53955;52.442;13.284;2023-02-02T07:55:00;8.40;69.80
67050;DHT22;53955;52.442;13.284;2023-02-02T07:57:27;8.40;70.30
67050;DHT22;53955;52.442;13.284;2023-02-02T07:59:53;8.30;71.00
67050;DHT22;53955;52.442;13.284;2023-02-02T08:02:20;8.20;72.30
67050;DHT22;53955;52.442;13.284;2023-02-02T08:04:46;8.10;73.10
67050;DHT22;53955;52.442;13.284;2023-02-02T08:07:13;8.00;73.00
67050;DHT22;53955;52.442;13.284;2023-02-02T08:09:44;7.90;73.60
67050;DHT22;53955;52.442;13.284;2023-02-02T08:12:12;7.80;74.30
67050;DHT22;53955;52.442;13.284;2023-02-02T08:14:39;8.00;74.20
67050;DHT22;53955;52.442;13.284;2023-02-02T08:17:05;7.90;74.40
67050;DHT22;53955;52.442;13.284;2023-02-02T08:19:32;8.00;74.30
67050;DHT22;53955;52.442;13.284;2023-02-02T08:21:59;8.10;74.10
67050;DHT22;53955;52.442;13.284;2023-02-02T08:24:25;8.20;73.30
67050;DHT22;53955;52.442;13.284;2023-02-02T08:26:52;8.60;71.60
67050;DHT22;53955;52.442;13.284;2023-02-02T08:29:20;8.90;70.10
67050;DHT22;53955;52.442;13.284;2023-02-02T08:31:46;9.20;69.30
67050;DHT22;53955;52.442;13.284;2023-02-02T08:34:13;9.40;66.60
67050;DHT22;53955;52.442;13.284;2023-02-02T08:36:40;9.50;64.50
67050;DHT22;53955;52.442;13.284;2023-02-02T08:39:10;9.40;65.80
67050;DHT22;53955;52.442;13.284;2023-02-02T08:41:38;9.60;65.30
67050;DHT22;53955;52.442;13.284;2023-02-02T08:44:05;10.00;64.00
67050;DHT22;53955;52.442;13.284;2023-02-02T08:46:33;10.40;60.70
67050;DHT22;53955;52.442;13.284;2023-02-02T08:49:00;10.90;60.00
67050;DHT22;53955;52.442;13.284;2023-02-02T08:51:26;11.60;58.10
67050;DHT22;53955;52.442;13.284;2023-02-02T08:53:53;12.20;56.50
67050;DHT22;53955;52.442;13.284;2023-02-02T08:56:21;12.20;56.00
67050;DHT22;53955;52.442;13.284;2023-02-02T08:58:49;12.20;55.60
67050;DHT22;53955;52.442;13.284;2023-02-02T09:01:18;12.40;55.20
67050;DHT22;53955;52.442;13.284;2023-02-02T09:03:46;12.60;54.20
67050;DHT22;53955;52.442;13.284;2023-02-02T09:06:15;12.90;52.10
67050;DHT22;53955;52.442;13.284;2023-02-02T09:08:42;13.40;50.90
67050;DHT22;53955;52.442;13.284;2023-02-02T09:11:10;13.70;49.00
67050;DHT22;53955;52.442;13.284;2023-02-02T09:13:38;13.00;50.70
67050;DHT22;53955;52.442;13.284;2023-02-02T09:16:07;12.50;52.90
67050;DHT22;53955;52.442;13.284;2023-02-02T09:18:34;11.80;55.00
67050;DHT22;53955;52.442;13.284;2023-02-02T09:21:04;11.30;56.80
67050;DHT22;53955;52.442;13.284;2023-02-02T09:23:32;11.20;57.40
67050;DHT22;53955;52.442;13.284;2023-02-02T09:26:08;10.80;58.70
67050;DHT22;53955;52.442;13.284;2023-02-02T09:28:35;10.30;59.50
67050;DHT22;53955;52.442;13.284;2023-02-02T09:31:02;9.90;60.00
67050;DHT22;53955;52.442;13.284;2023-02-02T09:33:29;9.90;61.70
67050;DHT22;53955;52.442;13.284;2023-02-02T09:35:55;9.80;61.70
67050;DHT22;53955;52.442;13.284;2023-02-02T09:38:23;9.70;62.40
67050;DHT22;53955;52.442;13.284;2023-02-02T09:40:50;9.80;61.60
67050;DHT22;53955;52.442;13.284;2023-02-02T09:43:30;9.60;61.10
67050;DHT22;53955;52.442;13.284;2023-02-02T09:46:05;9.40;62.20
67050;DHT22;53955;52.442;13.284;2023-02-02T09:48:41;9.30;63.20
67050;DHT22;53955;52.442;13.284;2023-02-02T09:51:12;9.20;63.90
67050;DHT22;53955;52.442;13.284;2023-02-02T09:53:46;9.20;63.70
67050;DHT22;53955;52.442;13.284;2023-02-02T09:56:21;9.20;63.30
67050;DHT22;53955;52.442;13.284;2023-02-02T09:58:52;9.30;63.10
67050;DHT22;53955;52.442;13.284;2023-02-02T10:01:21;9.30;62.60
67050;DHT22;53955;52.442;13.284;2023-02-02T10:03:57;9.20;62.20
67050;DHT22;53955;52.442;13.284;2023-02-02T10:06:32;9.30;62.70
67050;DHT22;53955;52.442;13.284;2023-02-02T10:09:07;9.60;62.70
67050;DHT22;53955;52.442;13.284;2023-02-02T10:11:42;9.70;62.20
67050;DHT22;53955;52.442;13.284;2023-02-02T10:14:14;9.70;61.50
67050;DHT22;53955;52.442;13.284;2023-02-02T10:16:44;9.80;61.50
67050;DHT22;53955;52.442;13.284;2023-02-02T10:19:13;9.60;60.50
67050;DHT22;53955;52.442;13.284;2023-02-02T10:21:45;9.50;61.00
67050;DHT22;53955;52.442;13.284;2023-02-02T10:24:16;9.30;60.90
67050;DHT22;53955;52.442;13.284;2023-02-02T10:26:46;9.20;61.70
67050;DHT22;53955;52.442;13.284;2023-02-02T10:29:16;9.00;61.10
67050;DHT22;53955;52.442;13.284;2023-02-02T10:31:49;9.10;62.10
67050;DHT22;53955;52.442;13.284;2023-02-02T10:34:22;9.00;60.70
67050;DHT22;53955;52.442;13.284;2023-02-02T10:36:58;9.00;61.50
67050;DHT22;53955;52.442;13.284;2023-02-02T10:39:39;8.90;61.30
67050;DHT22;53955;52.442;13.284;2023-02-02T10:42:17;8.80;61.70
67050;DHT22;53955;52.442;13.284;2023-02-02T10:44:49;8.80;62.10
67050;DHT22;53955;52.442;13.284;2023-02-02T10:47:23;8.80;61.60
67050;DHT22;53955;52.442;13.284;2023-02-02T10:49:55;8.80;60.60
67050;DHT22;53955;52.442;13.284;2023-02-02T10:52:29;9.10;60.80
67050;DHT22;53955;52.442;13.284;2023-02-02T10:55:00;9.30;60.50
67050;DHT22;53955;52.442;13.284;2023-02-02T10:57:45;9.40;59.70
67050;DHT22;53955;52.442;13.284;2023-02-02T11:00:19;9.60;59.70
67050;DHT22;53955;52.442;13.284;2023-02-02T11:02:46;9.90;58.80
67050;DHT22;53955;52.442;13.284;2023-02-02T11:05:18;9.90;56.30
67050;DHT22;53955;52.442;13.284;2023-02-02T11:08:11;9.90;57.00
67050;DHT22;53955;52.442;13.284;2023-02-02T11:10:40;10.10;55.80
67050;DHT22;53955;52.442;13.284;2023-02-02T11:13:10;10.00;56.30
67050;DHT22;53955;52.442;13.284;2023-02-02T11:15:39;9.80;55.10
67050;DHT22;53955;52.442;13.284;2023-02-02T11:18:13;9.70;54.90
67050;DHT22;53955;52.442;13.284;2023-02-02T11:20:50;9.80;56.40
67050;DHT22;53955;52.442;13.284;2023-02-02T11:23:17;9.80;56.70
67050;DHT22;53955;52.442;13.284;2023-02-02T11:25:56;9.60;56.00
67050;DHT22;53955;52.442;13.284;2023-02-02T11:28:25;9.60;53.70
67050;DHT22;53955;52.442;13.284;2023-02-02T11:30:55;9.50;53.90
67050;DHT22;53955;52.442;13.284;2023-02-02T11:33:27;9.50;54.30
67050;DHT22;53955;52.442;13.284;2023-02-02T11:35:55;9.40;54.40
67050;DHT22;53955;52.442;13.284;2023-02-02T11:38:23;9.50;54.90
67050;DHT22;53955;52.442;13.284;2023-02-02T11:40:57;9.50;54.60
67050;DHT22;53955;52.442;13.284;2023-02-02T11:43:29;9.40;55.30
67050;DHT22;53955;52.442;13.284;2023-02-02T11:45:58;9.50;55.00
67050;DHT22;53955;52.442;13.284;2023-02-02T11:48:30;9.50;56.60
67050;DHT22;53955;52.442;13.284;2023-02-02T11:50:59;9.60;55.70
67050;DHT22;53955;52.442;13.284;2023-02-02T11:53:28;9.70;55.70
67050;DHT22;53955;52.442;13.284;2023-02-02T11:55:59;9.50;56.40
67050;DHT22;53955;52.442;13.284;2023-02-02T11:58:27;9.50;57.30
67050;DHT22;53955;52.442;13.284;2023-02-02T12:00:57;9.30;58.90
67050;DHT22;53955;52.442;13.284;2023-02-02T12:03:26;9.30;59.00
67050;DHT22;53955;52.442;13.284;2023-02-02T12:05:53;9.20;59.70
67050;DHT22;53955;52.442;13.284;2023-02-02T12:08:20;9.20;59.10
67050;DHT22;53955;52.442;13.284;2023-02-02T12:10:52;9.30;59.30
67050;DHT22;53955;52.442;13.284;2023-02-02T12:13:36;9.20;59.50
67050;DHT22;53955;52.442;13.284;2023-02-02T12:16:14;9.30;59.80
67050;DHT22;53955;52.442;13.284;2023-02-02T12:18:54;9.30;59.70
67050;DHT22;53955;52.442;13.284;2023-02-02T12:21:33;9.40;60.00
67050;DHT22;53955;52.442;13.284;2023-02-02T12:24:15;9.30;59.30
67050;DHT22;53955;52.442;13.284;2023-02-02T12:26:49;9.30;59.40
67050;DHT22;53955;52.442;13.284;2023-02-02T12:29:38;9.10;63.20
67050;DHT22;53955;52.442;13.284;2023-02-02T12:32:18;8.40;67.10
67050;DHT22;53955;52.442;13.284;2023-02-02T12:34:55;8.10;69.30
67050;DHT22;53955;52.442;13.284;2023-02-02T12:37:34;7.80;70.50
67050;DHT22;53955;52.442;13.284;2023-02-02T12:40:19;7.80;71.20
67050;DHT22;53955;52.442;13.284;2023-02-02T12:42:57;7.90;71.60
67050;DHT22;53955;52.442;13.284;2023-02-02T12:45:40;8.00;71.10
67050;DHT22;53955;52.442;13.284;2023-02-02T12:48:16;8.10;72.10
67050;DHT22;53955;52.442;13.284;2023-02-02T12:50:56;8.00;71.40
67050;DHT22;53955;52.442;13.284;2023-02-02T12:53:37;8.20;70.90
67050;DHT22;53955;52.442;13.284;2023-02-02T12:56:17;8.30;70.40
67050;DHT22;53955;52.442;13.284;2023-02-02T12:58:52;8.40;70.20
67050;DHT22;53955;52.442;13.284;2023-02-02T13:01:34;8.30;70.00
67050;DHT22;53955;52.442;13.284;2023-02-02T13:04:26;8.40;69.90
67050;DHT22;53955;52.442;13.284;2023-02-02T13:10:03;8.50;70.10
67050;DHT22;53955;52.442;13.284;2023-02-02T13:12:34;8.50;69.40
67050;DHT22;53955;52.442;13.284;2023-02-02T13:15:05;8.60;68.90
67050;DHT22;53955;52.442;13.284;2023-02-02T13:17:39;8.70;69.10
67050;DHT22;53955;52.442;13.284;2023-02-02T13:20:17;8.80;68.50
67050;DHT22;53955;52.442;13.284;2023-02-02T13:22:49;8.80;68.40
67050;DHT22;53955;52.442;13.284;2023-02-02T13:25:21;8.90;67.90
67050;DHT22;53955;52.442;13.284;2023-02-02T13:27:49;9.00;66.70
67050;DHT22;53955;52.442;13.284;2023-02-02T13:30:24;8.90;66.50
67050;DHT22;53955;52.442;13.284;2023-02-02T13:32:58;8.80;66.00
67050;DHT22;53955;52.442;13.284;2023-02-02T13:35:30;8.80;65.80
67050;DHT22;53955;52.442;13.284;2023-02-02T13:38:03;9.00;64.80
67050;DHT22;53955;52.442;13.284;2023-02-02T13:40:34;8.90;63.50
67050;DHT22;53955;52.442;13.284;2023-02-02T13:43:07;9.10;63.20
67050;DHT22;53955;52.442;13.284;2023-02-02T13:45:45;9.10;62.80
67050;DHT22;53955;52.442;13.284;2023-02-02T13:48:21;9.30;61.70
67050;DHT22;53955;52.442;13.284;2023-02-02T13:51:05;9.30;62.20
67050;DHT22;53955;52.442;13.284;2023-02-02T13:53:51;9.30;60.30
67050;DHT22;53955;52.442;13.284;2023-02-02T13:56:34;9.40;60.70
67050;DHT22;53955;52.442;13.284;2023-02-02T13:59:13;9.30;59.30
67050;DHT22;53955;52.442;13.284;2023-02-02T14:01:47;9.20;59.40
67050;DHT22;53955;52.442;13.284;2023-02-02T14:04:20;9.20;60.50
67050;DHT22;53955;52.442;13.284;2023-02-02T14:06:56;9.20;60.70
67050;DHT22;53955;52.442;13.284;2023-02-02T14:09:26;9.20;60.60
67050;DHT22;53955;52.442;13.284;2023-02-02T14:11:56;9.20;60.60
67050;DHT22;53955;52.442;13.284;2023-02-02T14:14:23;9.10;60.60
67050;DHT22;53955;52.442;13.284;2023-02-02T14:17:02;9.20;60.30
67050;DHT22;53955;52.442;13.284;2023-02-02T14:19:51;9.20;60.00
67050;DHT22;53955;52.442;13.284;2023-02-02T14:22:37;9.20;60.10
67050;DHT22;53955;52.442;13.284;2023-02-02T14:28:08;9.10;56.90
67050;DHT22;53955;52.442;13.284;2023-02-02T14:30:37;9.00;56.30
67050;DHT22;53955;52.442;13.284;2023-02-02T14:33:25;9.00;61.60
67050;DHT22;53955;52.442;13.284;2023-02-02T14:35:59;9.20;56.10
67050;DHT22;53955;52.442;13.284;2023-02-02T14:41:32;9.10;54.20
67050;DHT22;53955;52.442;13.284;2023-02-02T14:44:17;8.90;53.00
67050;DHT22;53955;52.442;13.284;2023-02-02T14:46:44;8.90;52.90
67050;DHT22;53955;52.442;13.284;2023-02-02T14:49:22;8.70;52.50
67050;DHT22;53955;52.442;13.284;2023-02-02T14:51:53;8.70;51.90
67050;DHT22;53955;52.442;13.284;2023-02-02T14:54:27;8.50;51.70
67050;DHT22;53955;52.442;13.284;2023-02-02T14:56:58;8.40;52.70
67050;DHT22;53955;52.442;13.284;2023-02-02T14:59:28;8.50;52.60
67050;DHT22;53955;52.442;13.284;2023-02-02T15:02:01;8.30;52.20
67050;DHT22;53955;52.442;13.284;2023-02-02T15:04:28;8.30;52.30
67050;DHT22;53955;52.442;13.284;2023-02-02T15:10:03;8.30;51.70
67050;DHT22;53955;52.442;13.284;2023-02-02T15:12:33;8.30;51.70
67050;DHT22;53955;52.442;13.284;2023-02-02T15:15:11;8.20;51.70
67050;DHT22;53955;52.442;13.284;2023-02-02T15:17:48;8.20;52.00
67050;DHT22;53955;52.442;13.284;2023-02-02T15:20:21;8.20;52.20
67050;DHT22;53955;52.442;13.284;2023-02-02T15:22:54;8.10;52.60
67050;DHT22;53955;52.442;13.284;2023-02-02T15:25:26;8.20;52.80
67050;DHT22;53955;52.442;13.284;2023-02-02T15:27:57;8.10;52.60
67050;DHT22;53955;52.442;13.284;2023-02-02T15:30:27;8.20;52.50
67050;DHT22;53955;52.442;13.284;2023-02-02T15:32:57;8.20;51.90
67050;DHT22;53955;52.442;13.284;2023-02-02T15:35:29;8.10;51.80
67050;DHT22;53955;52.442;13.284;2023-02-02T15:37:59;8.20;52.00
67050;DHT22;53955;52.442;13.284;2023-02-02T15:40:29;8.20;51.80
67050;DHT22;53955;52.442;13.284;2023-02-02T15:43:00;8.10;51.90
67050;DHT22;53955;52.442;13.284;2023-02-02T15:45:36;8.10;52.60
67050;DHT22;53955;52.442;13.284;2023-02-02T15:48:16;8.10;52.70
67050;DHT22;53955;52.442;13.284;2023-02-02T15:50:44;8.00;52.40
67050;DHT22;53955;52.442;13.284;2023-02-02T15:53:16;7.90;52.60
67050;DHT22;53955;52.442;13.284;2023-02-02T15:55:45;8.00;52.80
67050;DHT22;53955;52.442;13.284;2023-02-02T15:58:25;7.90;53.80
67050;DHT22;53955;52.442;13.284;2023-02-02T16:01:02;7.80;53.60
67050;DHT22;53955;52.442;13.284;2023-02-02T16:03:40;7.90;54.20
67050;DHT22;53955;52.442;13.284;2023-02-02T16:06:08;7.90;53.50
67050;DHT22;53955;52.442;13.284;2023-02-02T16:08:36;7.90;53.20